Time;durP1;ratioP1;P1;durP2;ratioP2;P2;SDS_P1;SDS_P2;PMS_P1;PMS_P2;Temp;Humidity;BMP_temperature;BMP_pressure;BME280_temperature;BME280_humidity;BME280_pressure;Samples;Min_cycle;Max_cycle;Signal;HPM_P1;HPM_P2
2021/08/05 00:01:38;;;;;;;11.80;4.25;;;;;;;28.33;36.46;93767.59;4987309;28;20014;-77
2021/08/05 00:04:03;;;;;;;12.10;4.60;;;;;;;28.36;36.53;93766.78;4986959;28;20424;-76
2021/08/05 00:06:29;;;;;;;13.43;5.43;;;;;;;28.33;36.45;93765.66;4985855;28;20417;-77
2021/08/05 00:08:54;;;;;;;10.63;4.30;;;;;;;28.31;36.57;93759.06;4984522;28;20066;-77
2021/08/05 00:11:20;;;;;;;10.80;4.07;;;;;;;28.31;36.95;93759.06;4984563;28;20042;-77
2021/08/05 00:13:45;;;;;;;17.50;5.18;;;;;;;28.24;36.97;93759.94;4982964;28;20034;-77
2021/08/05 00:16:11;;;;;;;12.27;4.57;;;;;;;28.30;36.94;93757.53;4989245;28;20037;-77
2021/08/05 00:18:36;;;;;;;16.92;5.30;;;;;;;28.28;36.81;93759.88;4985982;28;20063;-78
2021/08/05 00:21:01;;;;;;;10.48;4.07;;;;;;;28.24;36.62;93759.16;4987186;28;20049;-77
2021/08/05 00:23:27;;;;;;;14.55;4.55;;;;;;;28.19;36.59;93751.44;4985081;28;20516;-78
2021/08/05 00:25:52;;;;;;;14.63;4.97;;;;;;;28.19;37.08;93754.91;4983244;28;20690;-77
2021/08/05 00:28:17;;;;;;;15.02;5.70;;;;;;;28.12;36.82;93756.91;4986715;28;20044;-77
2021/08/05 00:30:43;;;;;;;10.27;4.75;;;;;;;28.08;36.92;93767.00;4985891;28;20026;-77
2021/08/05 00:33:08;;;;;;;10.77;4.80;;;;;;;27.90;37.78;93756.28;4985487;28;20043;-76
2021/08/05 00:35:34;;;;;;;15.52;5.45;;;;;;;27.85;39.12;93770.28;4984768;28;20408;-77
2021/08/05 00:37:59;;;;;;;13.90;5.22;;;;;;;27.66;38.94;93760.66;4987580;28;20083;-75
2021/08/05 00:40:24;;;;;;;11.48;5.10;;;;;;;27.44;38.11;93746.44;4988545;28;20062;-78
2021/08/05 00:42:50;;;;;;;12.32;5.25;;;;;;;27.57;37.83;93760.34;4986476;28;20105;-77
2021/08/05 00:45:16;;;;;;;13.85;5.07;;;;;;;27.62;38.10;93761.88;4985681;28;20446;-78
2021/08/05 00:47:42;;;;;;;16.35;6.03;;;;;;;27.55;38.41;93773.56;4986089;28;20511;-77
2021/08/05 00:50:08;;;;;;;14.88;6.05;;;;;;;27.65;38.55;93767.28;4986628;28;20173;-77
2021/08/05 00:52:33;;;;;;;15.73;6.07;;;;;;;27.55;38.48;93763.47;4985862;28;20073;-77
2021/08/05 00:54:59;;;;;;;14.90;5.57;;;;;;;27.40;38.28;93767.41;4989680;28;20074;-78
2021/08/05 00:57:24;;;;;;;13.90;5.72;;;;;;;26.72;39.47;93776.91;4987599;28;20048;-77
2021/08/05 00:59:50;;;;;;;13.90;5.97;;;;;;;26.98;39.41;93760.19;4984886;28;20041;-77
2021/08/05 01:02:19;;;;;;;17.00;6.88;;;;;;;27.31;39.11;93774.41;4990385;28;20089;-76
2021/08/05 01:04:48;;;;;;;15.65;6.90;;;;;;;27.39;38.47;93776.69;4989144;28;20588;-76
2021/08/05 01:07:28;;;;;;;14.30;7.60;;;;;;;27.39;38.17;93755.00;4986792;28;20034;-78
2021/08/05 01:10:04;;;;;;;16.02;6.38;;;;;;;27.52;37.83;93772.38;4987882;28;20452;-77
2021/08/05 01:12:58;;;;;;;17.20;6.75;;;;;;;27.54;38.57;93774.72;4988950;28;20408;-79
2021/08/05 01:15:25;;;;;;;22.65;8.75;;;;;;;27.48;37.86;93768.13;4992721;28;20053;-77
2021/08/05 01:17:59;;;;;;;17.33;7.20;;;;;;;27.48;38.16;93765.41;4985870;28;20400;-78
2021/08/05 01:20:26;;;;;;;21.40;7.20;;;;;;;27.41;38.29;93747.22;4990360;28;20038;-78
2021/08/05 01:23:02;;;;;;;11.93;6.63;;;;;;;27.52;38.80;93758.81;4999810;28;20318;-77
2021/08/05 01:25:51;;;;;;;16.13;7.43;;;;;;;27.46;38.27;93759.63;4990185;28;20117;-76
2021/08/05 01:28:17;;;;;;;17.63;7.55;;;;;;;27.45;37.98;93755.34;4987956;28;20523;-77
2021/08/05 01:30:47;;;;;;;13.85;8.18;;;;;;;27.37;38.67;93740.25;4990625;28;20045;-76
2021/08/05 01:33:17;;;;;;;16.17;8.07;;;;;;;27.43;38.42;93749.53;4990024;28;20583;-76
2021/08/05 01:35:43;;;;;;;20.08;8.85;;;;;;;27.39;38.09;93748.78;4987369;28;20145;-78
2021/08/05 01:38:14;;;;;;;16.75;7.78;;;;;;;27.43;38.77;93738.69;4987120;28;20408;-76
2021/08/05 01:40:41;;;;;;;15.77;8.27;;;;;;;27.42;37.51;93742.56;4986489;28;20091;-78
2021/08/05 01:43:07;;;;;;;15.18;8.20;;;;;;;27.43;37.74;93744.09;4992393;28;20468;-78
2021/08/05 01:45:34;;;;;;;18.08;8.88;;;;;;;27.37;37.35;93740.25;4987202;28;20464;-77
2021/08/05 01:48:01;;;;;;;14.05;7.50;;;;;;;27.38;37.56;93741.81;4989741;28;20048;-77
2021/08/05 01:50:27;;;;;;;16.38;9.57;;;;;;;27.42;37.30;93734.41;4989299;28;20050;-77
2021/08/05 01:52:54;;;;;;;20.60;8.40;;;;;;;27.35;37.45;93737.97;4987467;28;20491;-77
2021/08/05 01:55:19;;;;;;;16.88;8.30;;;;;;;27.26;37.99;93729.47;4986799;28;20030;-77
2021/08/05 01:57:45;;;;;;;20.75;9.68;;;;;;;27.34;37.50;93727.50;4990469;28;20575;-77
2021/08/05 02:00:11;;;;;;;12.63;7.90;;;;;;;27.29;37.53;93717.81;4987244;28;20045;-78
2021/08/05 02:02:37;;;;;;;21.25;8.52;;;;;;;27.28;38.00;93710.06;4990257;28;20046;-77
2021/08/05 02:05:25;;;;;;;21.48;9.85;;;;;;;27.35;37.19;93715.47;4986543;28;20088;-78
2021/08/05 02:08:05;;;;;;;19.30;8.95;;;;;;;27.34;37.27;93708.50;4985374;28;20042;-78
2021/08/05 02:10:48;;;;;;;18.60;9.18;;;;;;;27.38;38.09;93711.94;4988747;28;20026;-76
2021/08/05 02:13:25;;;;;;;22.15;9.52;;;;;;;27.24;37.20;93704.66;4986822;28;20050;-77
2021/08/05 02:15:55;;;;;;;24.75;7.60;;;;;;;27.28;37.71;93694.56;4985246;28;20104;-76
2021/08/05 02:18:25;;;;;;;21.02;8.40;;;;;;;27.38;36.73;93714.66;4990237;28;20041;-76
2021/08/05 02:20:50;;;;;;;14.60;7.90;;;;;;;27.20;37.54;93703.94;4987318;28;20038;-77
2021/08/05 02:23:17;;;;;;;18.35;8.10;;;;;;;27.17;37.11;93717.50;4988260;28;20045;-76
2021/08/05 02:25:45;;;;;;;23.80;9.15;;;;;;;26.73;37.80;93691.72;4987973;28;20126;-77
2021/08/05 02:28:12;;;;;;;16.85;7.65;;;;;;;26.87;38.09;93718.03;4987158;28;20123;-77
2021/08/05 02:30:38;;;;;;;19.35;8.32;;;;;;;26.80;38.84;93716.06;4983704;28;20050;-77
2021/08/05 02:33:04;;;;;;;12.98;7.20;;;;;;;26.80;39.02;93718.78;4987971;28;20040;-77
2021/08/05 02:35:34;;;;;;;18.17;8.00;;;;;;;26.80;38.85;93716.06;4987638;28;21483;-77
2021/08/05 02:38:01;;;;;;;17.80;7.68;;;;;;;26.59;39.09;93702.56;4988278;28;20034;-77
2021/08/05 02:40:29;;;;;;;20.20;8.35;;;;;;;26.44;40.08;93714.63;4987783;28;20274;-75
2021/08/05 02:42:55;;;;;;;17.00;7.90;;;;;;;26.38;40.72;93716.97;4986322;28;20528;-76
2021/08/05 02:45:21;;;;;;;16.40;7.70;;;;;;;26.46;40.08;93715.00;4987024;28;20038;-77
2021/08/05 02:47:47;;;;;;;19.45;8.18;;;;;;;26.53;40.33;93715.00;4984566;28;20030;-76
2021/08/05 02:50:13;;;;;;;21.13;8.85;;;;;;;26.49;39.18;93716.91;4988281;28;20030;-77
2021/08/05 02:52:40;;;;;;;15.07;7.50;;;;;;;26.35;40.20;93697.97;4989631;28;20127;-78
2021/08/05 02:55:06;;;;;;;19.17;8.70;;;;;;;26.39;39.87;93712.31;4984700;28;20070;-77
2021/08/05 02:57:33;;;;;;;14.50;7.20;;;;;;;26.24;40.68;93709.59;4987419;28;20614;-76
2021/08/05 02:59:58;;;;;;;15.70;7.50;;;;;;;25.75;41.84;93704.22;4988160;28;20921;-76
2021/08/05 03:02:24;;;;;;;14.20;7.85;;;;;;;25.87;41.24;93711.94;4988852;28;20053;-76
2021/08/05 03:04:50;;;;;;;32.35;7.85;;;;;;;25.48;42.06;93713.78;4992751;28;20054;-77
2021/08/05 03:07:16;;;;;;;15.95;6.60;;;;;;;25.75;42.03;93721.22;4984065;28;20026;-77
2021/08/05 03:09:41;;;;;;;18.85;7.50;;;;;;;25.86;41.72;93704.97;4982725;28;20042;-77
2021/08/05 03:12:07;;;;;;;14.75;7.50;;;;;;;26.06;41.18;93716.94;4986320;28;20122;-77
2021/08/05 03:14:33;;;;;;;16.40;7.28;;;;;;;26.09;41.61;93701.88;4988249;28;20505;-75
2021/08/05 03:16:59;;;;;;;21.00;7.05;;;;;;;26.18;41.04;93694.13;4985982;28;20109;-75
2021/08/05 03:19:25;;;;;;;17.48;6.97;;;;;;;26.35;41.01;93708.81;4986924;28;20026;-78
2021/08/05 03:21:50;;;;;;;20.75;8.38;;;;;;;26.39;40.97;93696.06;4986880;28;20053;-77
2021/08/05 03:24:16;;;;;;;22.58;7.75;;;;;;;26.47;39.90;93701.06;4988277;28;20071;-76
2021/08/05 03:26:41;;;;;;;20.08;7.90;;;;;;;26.33;40.41;93679.44;4986975;28;20046;-77
2021/08/05 03:29:07;;;;;;;17.98;8.57;;;;;;;26.43;40.86;93694.88;4987535;28;20251;-76
2021/08/05 03:31:32;;;;;;;21.05;7.68;;;;;;;26.47;40.40;93686.75;4985758;28;20018;-75
2021/08/05 03:33:58;;;;;;;13.60;6.88;;;;;;;26.53;40.26;93701.44;4988433;28;20042;-77
2021/08/05 03:36:23;;;;;;;18.70;6.68;;;;;;;26.51;40.15;93696.41;4985400;28;20156;-78
2021/08/05 03:38:49;;;;;;;20.23;7.15;;;;;;;26.35;40.69;93704.19;4988339;28;20037;-77
2021/08/05 03:41:14;;;;;;;15.68;7.43;;;;;;;26.08;40.86;93689.50;4986187;28;20093;-76
2021/08/05 03:43:40;;;;;;;15.50;7.22;;;;;;;26.12;40.97;93690.25;4987398;28;20025;-76
2021/08/05 03:46:05;;;;;;;17.58;7.55;;;;;;;25.84;42.13;93686.41;4985051;28;20210;-78
2021/08/05 03:48:31;;;;;;;13.82;6.63;;;;;;;25.70;41.93;93689.13;4984250;28;20041;-76
2021/08/05 03:50:56;;;;;;;23.30;8.30;;;;;;;25.48;42.00;93668.56;4989180;28;20418;-77
2021/08/05 03:53:21;;;;;;;15.50;6.60;;;;;;;25.42;42.68;93695.22;4986621;28;20108;-78
2021/08/05 03:55:47;;;;;;;14.13;6.88;;;;;;;25.42;42.53;93676.28;4985787;28;20042;-77
2021/08/05 03:58:12;;;;;;;14.15;6.18;;;;;;;25.28;43.64;93668.16;4990325;28;20366;-77
2021/08/05 04:00:38;;;;;;;17.23;6.15;;;;;;;25.26;43.60;93686.72;4987301;28;20030;-78
2021/08/05 04:03:03;;;;;;;14.82;6.32;;;;;;;25.31;43.35;93664.72;4987503;28;20038;-76
2021/08/05 04:05:29;;;;;;;15.75;7.75;;;;;;;25.63;43.07;93688.34;4985687;28;20034;-76
2021/08/05 04:07:54;;;;;;;13.02;6.82;;;;;;;25.76;42.78;93667.84;4982936;28;20361;-77
2021/08/05 04:10:20;;;;;;;13.82;6.60;;;;;;;25.80;43.35;93679.47;4987850;28;20719;-77
2021/08/05 04:12:45;;;;;;;18.83;6.88;;;;;;;26.11;42.52;93678.66;4984235;28;20457;-77
2021/08/05 04:15:11;;;;;;;10.70;6.90;;;;;;;26.29;41.96;93667.84;4988313;28;20185;-78
2021/08/05 04:17:38;;;;;;;15.00;8.85;;;;;;;26.20;42.64;93676.31;4982990;28;20046;-77
2021/08/05 04:20:05;;;;;;;17.08;8.60;;;;;;;26.59;41.93;93670.81;4987096;28;20060;-77
2021/08/05 04:22:30;;;;;;;12.38;7.07;;;;;;;26.75;42.34;93681.22;4986426;28;20029;-76
2021/08/05 04:24:55;;;;;;;18.70;7.10;;;;;;;26.77;42.26;93673.50;4988310;28;20408;-78
2021/08/05 04:27:21;;;;;;;12.38;6.68;;;;;;;26.85;42.83;93676.94;4983992;28;20050;-78
2021/08/05 04:29:46;;;;;;;13.77;6.68;;;;;;;26.85;41.83;93685.84;4988924;28;20048;-77
2021/08/05 04:32:12;;;;;;;14.32;6.45;;;;;;;26.86;42.35;93679.28;4990719;28;20042;-77
2021/08/05 04:34:37;;;;;;;15.57;7.68;;;;;;;26.88;42.25;93670.75;4990551;28;20062;-78
2021/08/05 04:37:03;;;;;;;15.63;6.35;;;;;;;27.05;42.29;93680.75;4989803;28;20127;-77
2021/08/05 04:39:29;;;;;;;16.80;7.20;;;;;;;26.74;43.10;93666.13;4990577;28;20034;-77
2021/08/05 04:41:54;;;;;;;12.82;7.35;;;;;;;27.00;42.72;93673.78;4991629;28;20041;-77
2021/08/05 04:44:19;;;;;;;18.98;7.25;;;;;;;27.19;42.51;93669.81;4990273;28;20536;-77
2021/08/05 04:46:45;;;;;;;16.65;6.65;;;;;;;27.38;41.94;93665.81;4990298;28;20084;-77
2021/08/05 04:49:10;;;;;;;20.15;7.20;;;;;;;27.39;41.49;93672.81;4992225;28;20025;-77
2021/08/05 04:51:35;;;;;;;13.00;6.43;;;;;;;27.14;42.43;93657.44;4991598;28;20042;-77
2021/08/05 04:54:02;;;;;;;17.85;7.88;;;;;;;27.38;41.92;93660.41;4989211;28;20041;-78
2021/08/05 04:56:28;;;;;;;13.18;6.20;;;;;;;27.49;41.33;93672.00;4990604;28;20061;-78
2021/08/05 04:58:54;;;;;;;17.83;6.53;;;;;;;27.51;41.00;93664.22;4989635;28;20049;-77
2021/08/05 05:01:19;;;;;;;15.60;7.28;;;;;;;27.42;41.96;93656.50;4991135;28;21611;-77
2021/08/05 05:03:45;;;;;;;17.83;6.65;;;;;;;27.64;40.46;93659.88;4990025;28;20124;-77
2021/08/05 05:06:10;;;;;;;17.73;7.82;;;;;;;27.75;39.58;93657.84;4988884;28;20038;-77
2021/08/05 05:08:35;;;;;;;15.68;6.72;;;;;;;27.87;39.54;93670.16;4989951;28;20038;-78
2021/08/05 05:11:01;;;;;;;12.57;6.80;;;;;;;27.91;39.23;93665.44;4990986;28;20033;-77
2021/08/05 05:13:27;;;;;;;13.55;6.82;;;;;;;27.99;40.18;93672.38;4987971;28;20022;-77
2021/08/05 05:15:53;;;;;;;16.23;7.55;;;;;;;28.19;40.29;93669.91;4984769;28;20571;-77
2021/08/05 05:18:21;;;;;;;18.30;8.68;;;;;;;28.31;39.33;93669.38;4987052;28;20049;-78
2021/08/05 05:20:47;;;;;;;26.08;9.05;;;;;;;28.44;38.85;93665.00;4987791;28;20370;-77
2021/08/05 05:23:12;;;;;;;15.63;8.35;;;;;;;28.44;39.65;93659.56;4986883;28;20041;-76
2021/08/05 05:25:38;;;;;;;22.70;8.80;;;;;;;28.50;39.12;93662.59;4989950;28;20042;-78
2021/08/05 05:28:04;;;;;;;17.10;8.70;;;;;;;28.44;39.09;93665.75;4987523;28;20417;-77
2021/08/05 05:30:30;;;;;;;14.55;8.25;;;;;;;28.38;38.81;93666.63;4990109;28;20034;-77
2021/08/05 05:32:55;;;;;;;22.50;9.05;;;;;;;28.38;39.04;93655.75;4990987;28;20129;-77
2021/08/05 05:35:21;;;;;;;19.23;9.10;;;;;;;28.44;39.18;93648.69;4991730;28;20033;-77
2021/08/05 05:37:49;;;;;;;17.35;9.05;;;;;;;28.56;39.62;93650.88;4986875;28;20073;-78
2021/08/05 05:40:15;;;;;;;25.23;9.50;;;;;;;28.72;39.19;93648.41;4989468;28;20040;-77
2021/08/05 05:42:42;;;;;;;16.35;8.48;;;;;;;28.90;38.66;93642.72;4990503;28;20049;-76
2021/08/05 05:45:09;;;;;;;25.00;9.90;;;;;;;29.01;38.64;93632.50;4987491;28;20093;-77
2021/08/05 05:47:34;;;;;;;25.38;9.30;;;;;;;29.17;37.85;93640.84;4990890;28;20038;-77
2021/08/05 05:50:00;;;;;;;22.90;9.15;;;;;;;29.05;38.39;93635.94;4987265;28;20033;-77
2021/08/05 05:52:25;;;;;;;30.30;9.57;;;;;;;29.13;38.74;93636.59;4990126;28;20101;-78
2021/08/05 05:54:51;;;;;;;19.85;9.88;;;;;;;29.06;39.36;93628.53;4987010;28;20155;-77
2021/08/05 05:57:16;;;;;;;19.75;8.93;;;;;;;29.27;39.64;93622.81;4989178;28;20192;-77
2021/08/05 05:59:42;;;;;;;21.10;9.20;;;;;;;29.18;39.45;93619.81;4988981;28;20600;-77
2021/08/05 06:02:08;;;;;;;25.42;9.35;;;;;;;29.43;39.58;93620.25;4986920;28;20046;-76
2021/08/05 06:04:33;;;;;;;24.95;9.25;;;;;;;29.60;39.35;93619.22;4987785;28;20045;-76
2021/08/05 06:06:59;;;;;;;19.70;10.30;;;;;;;29.84;38.57;93611.81;4986193;28;20042;-77
2021/08/05 06:09:24;;;;;;;21.48;9.15;;;;;;;29.84;38.14;93600.16;4989791;28;20038;-78
2021/08/05 06:11:50;;;;;;;23.10;9.50;;;;;;;29.80;38.29;93604.91;4989057;28;20045;-76
2021/08/05 06:14:16;;;;;;;22.35;9.75;;;;;;;29.57;38.77;93611.84;4986823;28;20467;-77
2021/08/05 06:16:41;;;;;;;20.33;9.82;;;;;;;29.68;38.22;93607.03;4989723;28;20473;-78
2021/08/05 06:19:08;;;;;;;15.77;8.95;;;;;;;29.82;38.98;93595.13;4987864;28;20069;-78
2021/08/05 06:21:33;;;;;;;18.35;9.50;;;;;;;29.89;39.01;93608.66;4987782;28;20097;-77
2021/08/05 06:23:59;;;;;;;18.90;10.05;;;;;;;29.86;39.94;93603.25;4990700;28;20428;-78
2021/08/05 06:26:25;;;;;;;23.92;10.07;;;;;;;29.67;39.98;93608.19;4987623;28;20632;-78
2021/08/05 06:28:51;;;;;;;24.25;9.80;;;;;;;29.84;39.65;93611.06;4987508;28;21050;-77
2021/08/05 06:31:18;;;;;;;16.27;10.00;;;;;;;29.98;39.83;93594.50;4987922;28;20018;-79
2021/08/05 06:33:44;;;;;;;17.77;10.02;;;;;;;30.04;41.00;93584.66;4985656;28;20134;-77
2021/08/05 06:36:10;;;;;;;16.45;10.43;;;;;;;30.17;40.81;93593.75;4986769;28;20038;-78
2021/08/05 06:38:36;;;;;;;16.27;10.60;;;;;;;30.37;40.37;93589.09;4984612;28;20042;-77
2021/08/05 06:41:01;;;;;;;20.10;9.75;;;;;;;30.38;40.25;93566.09;4987480;28;20446;-78
2021/08/05 06:43:27;;;;;;;19.67;9.60;;;;;;;30.55;39.04;93583.31;4984389;28;20033;-77
2021/08/05 06:45:52;;;;;;;18.67;10.40;;;;;;;30.51;39.50;93577.94;4987139;28;20327;-77
2021/08/05 06:48:18;;;;;;;24.13;9.98;;;;;;;30.63;39.63;93573.81;4985513;28;20031;-77
2021/08/05 06:50:43;;;;;;;28.52;10.00;;;;;;;30.62;39.30;93577.72;4984727;28;20073;-77
2021/08/05 06:53:11;;;;;;;22.38;10.15;;;;;;;30.67;38.74;93574.50;4983292;28;20042;-77
2021/08/05 06:55:36;;;;;;;18.45;10.82;;;;;;;30.54;39.00;93568.91;4983556;28;20072;-76
2021/08/05 06:58:02;;;;;;;23.17;10.88;;;;;;;30.61;39.35;93575.41;4982770;28;20137;-77
2021/08/05 07:00:28;;;;;;;17.88;10.07;;;;;;;30.62;39.04;93566.03;4983390;28;20081;-76
2021/08/05 07:02:54;;;;;;;18.80;10.32;;;;;;;30.72;39.75;93578.69;4982493;28;20137;-77
2021/08/05 07:05:19;;;;;;;18.33;11.32;;;;;;;30.69;38.83;93553.00;4984415;28;20394;-77
2021/08/05 07:07:45;;;;;;;19.08;11.10;;;;;;;30.66;38.77;93562.03;4985059;28;20034;-76
2021/08/05 07:10:11;;;;;;;21.42;10.65;;;;;;;30.84;40.07;93558.94;4986426;28;20384;-77
2021/08/05 07:12:36;;;;;;;21.77;11.45;;;;;;;30.95;39.31;93575.84;4984983;28;20429;-77
2021/08/05 07:15:02;;;;;;;23.60;11.70;;;;;;;30.77;39.18;93561.81;4986296;28;20042;-77
2021/08/05 07:17:27;;;;;;;18.60;11.85;;;;;;;30.74;39.74;93571.59;4987779;28;20201;-76
2021/08/05 07:19:53;;;;;;;32.70;12.00;;;;;;;30.84;40.80;93562.44;4985653;28;20038;-75
2021/08/05 07:22:19;;;;;;;20.85;10.70;;;;;;;30.86;40.18;93570.19;4988573;28;20018;-75
2021/08/05 07:24:44;;;;;;;23.35;12.10;;;;;;;30.93;40.05;93564.59;4981681;28;20038;-76
2021/08/05 07:27:10;;;;;;;19.90;12.10;;;;;;;31.09;39.19;93569.34;4975247;28;20092;-77
2021/08/05 07:29:35;;;;;;;20.58;12.52;;;;;;;31.12;39.55;93566.53;4984464;28;20038;-77
2021/08/05 07:32:04;;;;;;;28.33;12.77;;;;;;;31.29;38.00;93559.91;4983633;28;20026;-77
2021/08/05 07:34:31;;;;;;;18.38;11.85;;;;;;;31.28;38.79;93554.84;4893115;28;20053;-78
2021/08/05 07:36:57;;;;;;;19.73;12.52;;;;;;;31.26;39.52;93552.56;4982578;28;20465;-76
2021/08/05 07:39:22;;;;;;;18.75;11.52;;;;;;;31.07;39.76;93553.41;4984007;28;20468;-76
2021/08/05 07:41:48;;;;;;;20.05;12.07;;;;;;;31.20;39.60;93559.72;4986413;28;20034;-76
2021/08/05 07:44:13;;;;;;;18.13;11.30;;;;;;;31.28;39.14;93555.63;4975764;28;20169;-76
2021/08/05 07:46:39;;;;;;;22.25;12.38;;;;;;;31.14;40.16;93547.78;4986287;28;20034;-76
2021/08/05 07:49:04;;;;;;;21.13;12.40;;;;;;;31.22;40.39;93540.97;4983472;28;20022;-76
2021/08/05 07:51:30;;;;;;;21.45;12.55;;;;;;;31.43;40.09;93547.88;4985255;28;20030;-76
2021/08/05 07:53:56;;;;;;;19.27;12.23;;;;;;;31.47;40.20;93534.16;4981318;28;20096;-76
2021/08/05 07:56:25;;;;;;;28.17;12.55;;;;;;;31.63;39.36;93540.38;4985945;28;20045;-75
2021/08/05 07:58:50;;;;;;;18.55;12.35;;;;;;;31.76;39.84;93540.47;4998428;28;20066;-77
2021/08/05 08:01:16;;;;;;;22.65;11.75;;;;;;;31.75;39.70;93525.25;4984433;28;20992;-75
2021/08/05 08:03:42;;;;;;;21.42;12.25;;;;;;;31.77;39.96;93544.72;4977071;28;20049;-76
2021/08/05 08:06:07;;;;;;;16.15;11.23;;;;;;;31.32;41.66;93547.38;4977905;28;20505;-76
2021/08/05 08:08:33;;;;;;;22.13;11.63;;;;;;;31.63;41.20;93542.34;4978855;28;20077;-75
2021/08/05 08:10:58;;;;;;;19.92;12.70;;;;;;;31.72;41.11;93543.28;4977182;28;20041;-76
2021/08/05 08:13:24;;;;;;;21.20;12.25;;;;;;;31.79;40.78;93547.78;4986242;28;20030;-76
2021/08/05 08:15:50;;;;;;;21.48;11.73;;;;;;;31.65;41.49;93538.00;4980299;28;20393;-76
2021/08/05 08:18:16;;;;;;;30.58;11.65;;;;;;;31.86;40.44;93533.97;4985706;28;20030;-78
2021/08/05 08:20:42;;;;;;;13.82;10.60;;;;;;;32.06;40.63;93528.38;4979571;28;20933;-76
2021/08/05 08:23:07;;;;;;;23.35;11.50;;;;;;;32.34;39.61;93521.38;4978754;28;20054;-77
2021/08/05 08:25:33;;;;;;;19.92;11.80;;;;;;;32.56;38.57;93520.31;4982148;28;20084;-76
2021/08/05 08:27:59;;;;;;;24.20;12.18;;;;;;;32.55;38.50;93523.50;4985121;28;20108;-76
2021/08/05 08:30:25;;;;;;;19.88;12.05;;;;;;;32.64;38.95;93518.19;4979881;28;20050;-75
2021/08/05 08:32:51;;;;;;;22.30;11.75;;;;;;;32.61;40.01;93502.59;4982718;28;20938;-77
2021/08/05 08:35:17;;;;;;;18.30;11.15;;;;;;;32.70;38.01;93505.50;4982691;28;20145;-77
2021/08/05 08:37:43;;;;;;;23.25;12.38;;;;;;;32.95;37.95;93500.03;4981963;28;20036;-76
2021/08/05 08:40:09;;;;;;;19.33;11.55;;;;;;;32.92;37.22;93505.63;4980546;28;20026;-75
2021/08/05 08:42:35;;;;;;;22.92;11.88;;;;;;;33.07;38.53;93499.28;4981777;28;20248;-77
2021/08/05 08:45:00;;;;;;;19.42;10.60;;;;;;;33.13;37.62;93488.56;4982745;28;20042;-79
2021/08/05 08:47:28;;;;;;;19.23;11.15;;;;;;;33.02;37.67;93488.88;4985208;28;20042;-79
2021/08/05 08:49:55;;;;;;;22.00;11.95;;;;;;;33.09;38.39;93485.91;4984798;28;20391;-79
2021/08/05 08:52:25;;;;;;;25.15;11.57;;;;;;;32.87;37.49;93487.00;4984155;28;20025;-76
2021/08/05 08:54:51;;;;;;;18.10;10.85;;;;;;;33.02;36.58;93482.63;4982968;28;20505;-79
2021/08/05 08:57:20;;;;;;;17.95;11.05;;;;;;;33.17;37.03;93477.50;4984115;28;20409;-76
2021/08/05 08:59:47;;;;;;;15.75;11.45;;;;;;;33.31;36.02;93469.59;4983751;28;20053;-76
2021/08/05 09:02:14;;;;;;;22.05;10.55;;;;;;;33.36;37.02;93485.47;4981893;28;20056;-77
2021/08/05 09:04:40;;;;;;;23.17;11.02;;;;;;;33.51;36.92;93491.25;4990801;28;20061;-76
2021/08/05 09:07:06;;;;;;;19.60;11.27;;;;;;;33.64;36.65;93478.28;4985098;28;20018;-76
2021/08/05 09:09:31;;;;;;;29.17;12.30;;;;;;;33.78;35.48;93477.81;4984964;28;20622;-76
2021/08/05 09:11:58;;;;;;;19.83;11.18;;;;;;;33.75;34.81;93467.75;4982820;28;20049;-75
2021/08/05 09:14:41;;;;;;;21.65;11.02;;;;;;;33.83;34.01;93466.28;4984728;28;20545;-76
2021/08/05 09:17:17;;;;;;;28.95;10.75;;;;;;;33.84;32.89;93454.13;4993025;28;20058;-77
2021/08/05 09:19:42;;;;;;;26.83;13.23;;;;;;;33.90;32.59;93438.66;4983712;28;20109;-77
2021/08/05 09:22:08;;;;;;;21.08;10.65;;;;;;;34.02;33.69;93426.06;4986621;28;20022;-76
2021/08/05 09:24:34;;;;;;;29.98;12.25;;;;;;;33.82;32.86;93429.13;4983665;28;20517;-76
2021/08/05 09:27:02;;;;;;;18.27;12.18;;;;;;;33.89;31.94;93431.63;4983744;28;20054;-78
2021/08/05 09:29:29;;;;;;;19.88;9.85;;;;;;;34.03;33.60;93427.59;4985183;28;20038;-76
2021/08/05 09:32:01;;;;;;;25.60;10.98;;;;;;;33.98;33.39;93419.19;4987146;28;20052;-78
2021/08/05 09:34:36;;;;;;;20.08;11.05;;;;;;;34.21;33.01;93425.00;4988077;28;20086;-78
2021/08/05 09:37:05;;;;;;;22.70;11.57;;;;;;;34.40;33.37;93417.66;4988802;28;20042;-77
2021/08/05 09:39:33;;;;;;;21.10;12.35;;;;;;;34.45;32.93;93416.31;4987941;28;20045;-78
2021/08/05 09:41:59;;;;;;;20.95;12.38;;;;;;;34.70;32.48;93397.69;4986490;28;20547;-77
2021/08/05 09:44:37;;;;;;;25.23;11.45;;;;;;;34.90;32.92;93404.78;4986210;28;20042;-76
2021/08/05 09:47:07;;;;;;;23.92;12.45;;;;;;;34.68;29.71;93405.63;4986660;28;20404;-79
2021/08/05 09:49:34;;;;;;;29.73;12.55;;;;;;;34.87;31.13;93409.19;4985562;28;20026;-76
2021/08/05 09:52:01;;;;;;;28.63;11.93;;;;;;;34.95;30.69;93401.44;4983687;28;20049;-76
2021/08/05 09:54:48;;;;;;;20.73;11.30;;;;;;;34.84;29.95;93398.38;4986935;28;20057;-76
2021/08/05 09:57:23;;;;;;;24.58;11.23;;;;;;;34.96;29.93;93391.97;4980904;28;20623;-78
2021/08/05 10:00:00;;;;;;;17.77;10.07;;;;;;;34.98;30.80;93384.06;4987139;28;20043;-77
2021/08/05 10:02:48;;;;;;;33.90;10.80;;;;;;;35.12;30.02;93383.47;4985095;28;20129;-78
2021/08/05 10:05:20;;;;;;;25.58;11.55;;;;;;;35.10;30.62;93370.19;4984163;28;20092;-77
2021/08/05 10:07:48;;;;;;;21.23;11.57;;;;;;;35.28;30.59;93371.50;4983624;28;20128;-79
2021/08/05 10:10:16;;;;;;;25.65;10.25;;;;;;;35.40;30.45;93368.59;4984955;28;20026;-77
2021/08/05 10:12:50;;;;;;;21.75;11.05;;;;;;;35.58;29.38;93371.31;4982566;28;20042;-79
2021/08/05 10:15:15;;;;;;;30.30;11.90;;;;;;;35.79;29.34;93357.91;4985036;28;20033;-78
2021/08/05 10:17:44;;;;;;;31.08;13.27;;;;;;;35.74;27.59;93350.28;4984523;28;20052;-78
2021/08/05 10:20:13;;;;;;;28.50;12.60;;;;;;;35.68;27.72;93352.88;4986453;28;20030;-79
2021/08/05 10:22:41;;;;;;;22.52;11.30;;;;;;;35.87;29.25;93342.66;4982340;28;20157;-79
2021/08/05 10:25:14;;;;;;;38.00;13.70;;;;;;;36.18;26.10;93334.94;4987308;28;20026;-77
2021/08/05 10:27:40;;;;;;;29.73;13.07;;;;;;;36.18;26.46;93345.19;4983300;28;20611;-79
2021/08/05 10:30:10;;;;;;;27.33;13.18;;;;;;;36.25;27.08;93340.13;4981696;28;20061;-74
2021/08/05 10:32:36;;;;;;;30.73;12.32;;;;;;;36.31;25.29;93327.25;4985708;28;20505;-78
2021/08/05 10:35:05;;;;;;;33.17;13.07;;;;;;;36.53;23.66;93320.75;4985240;28;20096;-75
2021/08/05 10:37:31;;;;;;;32.42;13.73;;;;;;;36.27;22.18;93296.41;4986488;28;20033;-76
2021/08/05 10:39:57;;;;;;;33.50;13.30;;;;;;;36.52;21.48;93316.47;4984309;28;20041;-76
2021/08/05 10:42:23;;;;;;;32.65;14.85;;;;;;;36.59;22.30;93296.88;4980686;28;20038;-75
2021/08/05 10:44:50;;;;;;;32.22;15.82;;;;;;;36.44;22.46;93303.06;4981797;28;20042;-76
2021/08/05 10:47:27;;;;;;;27.38;14.40;;;;;;;36.52;22.53;93314.50;4986109;28;20038;-76
2021/08/05 10:49:55;;;;;;;32.22;13.35;;;;;;;36.59;19.59;93297.63;4986484;28;20448;-74
2021/08/05 10:52:39;;;;;;;30.52;13.07;;;;;;;36.51;22.65;93287.44;4985668;28;20050;-76
2021/08/05 10:55:28;;;;;;;38.22;13.15;;;;;;;36.75;22.13;93293.75;4986871;28;20050;-75
2021/08/05 10:58:14;;;;;;;32.83;12.40;;;;;;;36.73;20.51;93274.19;4983617;28;20129;-75
2021/08/05 11:00:51;;;;;;;39.85;12.65;;;;;;;36.86;19.79;93271.97;4983654;28;20038;-76
2021/08/05 11:03:32;;;;;;;35.92;13.82;;;;;;;36.96;18.47;93259.66;4985460;28;20041;-76
2021/08/05 11:05:59;;;;;;;29.65;11.57;;;;;;;36.98;19.01;93262.72;4982844;28;20058;-76
2021/08/05 11:08:26;;;;;;;35.92;13.48;;;;;;;36.95;19.71;93263.63;4984742;28;20041;-76
2021/08/05 11:11:20;;;;;;;27.08;13.15;;;;;;;36.90;18.97;93261.53;4987168;28;20042;-76
2021/08/05 11:14:06;;;;;;;31.45;13.02;;;;;;;36.91;18.90;93232.75;4984183;28;20076;-76
2021/08/05 11:16:50;;;;;;;31.33;14.05;;;;;;;36.98;20.23;93224.16;4986836;28;20096;-76
2021/08/05 11:19:24;;;;;;;29.50;13.63;;;;;;;37.07;21.09;93226.84;4986004;28;20464;-77
2021/08/05 11:21:49;;;;;;;29.80;13.85;;;;;;;37.35;18.91;93223.84;4984220;28;20042;-79
2021/08/05 11:24:43;;;;;;;31.80;12.25;;;;;;;37.44;17.77;93221.75;4981837;28;20049;-76